sensor_id;sensor_type;location;lat;lon;timestamp;P1;durP1;ratioP1;P2;durP2;ratioP2
49828;SDS011;35723;51.194;5.112;2023-08-08T00:02:21;10.35;;;3.00;;
49828;SDS011;35723;51.194;5.112;2023-08-08T00:04:48;9.40;;;2.90;;
49828;SDS011;35723;51.194;5.112;2023-08-08T00:07:14;9.32;;;2.75;;
49828;SDS011;35723;51.194;5.112;2023-08-08T00:09:40;11.50;;;3.03;;
49828;SDS011;35723;51.194;5.112;2023-08-08T00:12:05;7.47;;;2.78;;
49828;SDS011;35723;51.194;5.112;2023-08-08T00:14:31;8.27;;;2.88;;
49828;SDS011;35723;51.194;5.112;2023-08-08T00:16:57;10.48;;;2.70;;
49828;SDS011;35723;51.194;5.112;2023-08-08T00:19:23;10.43;;;2.80;;
49828;SDS011;35723;51.194;5.112;2023-08-08T00:21:48;8.73;;;2.75;;
49828;SDS011;35723;51.194;5.112;2023-08-08T00:24:14;9.10;;;2.80;;
49828;SDS011;35723;51.194;5.112;2023-08-08T00:26:40;8.63;;;2.60;;
49828;SDS011;35723;51.194;5.112;2023-08-08T00:29:05;8.80;;;2.70;;
49828;SDS011;35723;51.194;5.112;2023-08-08T00:31:31;14.27;;;2.90;;
49828;SDS011;35723;51.194;5.112;2023-08-08T00:33:57;10.63;;;2.97;;
49828;SDS011;35723;51.194;5.112;2023-08-08T00:36:22;10.30;;;2.90;;
49828;SDS011;35723;51.194;5.112;2023-08-08T00:38:48;13.30;;;3.35;;
49828;SDS011;35723;51.194;5.112;2023-08-08T00:41:14;7.50;;;2.63;;
49828;SDS011;35723;51.194;5.112;2023-08-08T00:43:40;12.25;;;2.60;;
49828;SDS011;35723;51.194;5.112;2023-08-08T00:46:05;13.35;;;2.92;;
49828;SDS011;35723;51.194;5.112;2023-08-08T00:48:31;11.68;;;2.80;;
49828;SDS011;35723;51.194;5.112;2023-08-08T00:50:57;10.88;;;2.72;;
49828;SDS011;35723;51.194;5.112;2023-08-08T00:53:24;10.77;;;2.67;;
49828;SDS011;35723;51.194;5.112;2023-08-08T00:55:51;10.63;;;2.78;;
49828;SDS011;35723;51.194;5.112;2023-08-08T00:58:18;13.57;;;3.10;;
49828;SDS011;35723;51.194;5.112;2023-08-08T01:00:44;9.20;;;2.65;;
49828;SDS011;35723;51.194;5.112;2023-08-08T01:03:10;9.25;;;2.95;;
49828;SDS011;35723;51.194;5.112;2023-08-08T01:05:38;12.13;;;3.03;;
49828;SDS011;35723;51.194;5.112;2023-08-08T01:08:08;11.18;;;3.00;;
49828;SDS011;35723;51.194;5.112;2023-08-08T01:10:39;11.15;;;2.90;;
49828;SDS011;35723;51.194;5.112;2023-08-08T01:13:07;10.57;;;2.88;;
49828;SDS011;35723;51.194;5.112;2023-08-08T01:15:35;12.52;;;2.92;;
49828;SDS011;35723;51.194;5.112;2023-08-08T01:18:03;10.60;;;3.00;;
49828;SDS011;35723;51.194;5.112;2023-08-08T01:20:31;11.43;;;2.95;;
49828;SDS011;35723;51.194;5.112;2023-08-08T01:25:28;8.93;;;2.60;;
49828;SDS011;35723;51.194;5.112;2023-08-08T01:27:55;12.57;;;3.25;;
49828;SDS011;35723;51.194;5.112;2023-08-08T01:30:20;11.23;;;2.88;;
49828;SDS011;35723;51.194;5.112;2023-08-08T01:32:46;10.13;;;2.78;;
49828;SDS011;35723;51.194;5.112;2023-08-08T01:35:12;11.32;;;3.03;;
49828;SDS011;35723;51.194;5.112;2023-08-08T01:37:45;11.85;;;3.40;;
49828;SDS011;35723;51.194;5.112;2023-08-08T01:40:17;12.73;;;3.58;;
49828;SDS011;35723;51.194;5.112;2023-08-08T01:42:44;15.02;;;2.90;;
49828;SDS011;35723;51.194;5.112;2023-08-08T01:45:12;11.57;;;3.10;;
49828;SDS011;35723;51.194;5.112;2023-08-08T01:47:38;9.55;;;2.85;;
49828;SDS011;35723;51.194;5.112;2023-08-08T01:50:04;10.60;;;2.90;;
49828;SDS011;35723;51.194;5.112;2023-08-08T01:52:30;17.40;;;3.47;;
49828;SDS011;35723;51.194;5.112;2023-08-08T01:54:56;15.75;;;3.40;;
49828;SDS011;35723;51.194;5.112;2023-08-08T01:57:22;13.23;;;3.08;;
49828;SDS011;35723;51.194;5.112;2023-08-08T01:59:47;14.43;;;3.40;;
49828;SDS011;35723;51.194;5.112;2023-08-08T02:02:13;11.30;;;2.80;;
49828;SDS011;35723;51.194;5.112;2023-08-08T02:04:40;11.95;;;3.10;;
49828;SDS011;35723;51.194;5.112;2023-08-08T02:07:05;17.38;;;2.92;;
49828;SDS011;35723;51.194;5.112;2023-08-08T02:09:31;15.35;;;3.30;;
49828;SDS011;35723;51.194;5.112;2023-08-08T02:11:57;11.32;;;3.20;;
49828;SDS011;35723;51.194;5.112;2023-08-08T02:14:22;10.30;;;2.95;;
49828;SDS011;35723;51.194;5.112;2023-08-08T02:16:48;15.02;;;3.17;;
49828;SDS011;35723;51.194;5.112;2023-08-08T02:19:13;12.65;;;3.20;;
49828;SDS011;35723;51.194;5.112;2023-08-08T02:21:40;16.00;;;3.45;;
49828;SDS011;35723;51.194;5.112;2023-08-08T02:24:05;10.20;;;2.97;;
49828;SDS011;35723;51.194;5.112;2023-08-08T02:26:31;14.88;;;3.30;;
49828;SDS011;35723;51.194;5.112;2023-08-08T02:28:57;12.90;;;3.30;;
49828;SDS011;35723;51.194;5.112;2023-08-08T02:31:22;16.98;;;3.40;;
49828;SDS011;35723;51.194;5.112;2023-08-08T02:33:48;14.27;;;3.83;;
49828;SDS011;35723;51.194;5.112;2023-08-08T02:36:18;14.60;;;3.65;;
49828;SDS011;35723;51.194;5.112;2023-08-08T02:38:44;13.90;;;3.35;;
49828;SDS011;35723;51.194;5.112;2023-08-08T02:41:10;17.70;;;3.53;;
49828;SDS011;35723;51.194;5.112;2023-08-08T02:43:36;14.57;;;3.95;;
49828;SDS011;35723;51.194;5.112;2023-08-08T02:46:01;15.38;;;3.70;;
49828;SDS011;35723;51.194;5.112;2023-08-08T02:48:28;15.10;;;3.55;;
49828;SDS011;35723;51.194;5.112;2023-08-08T02:50:54;14.10;;;3.10;;
49828;SDS011;35723;51.194;5.112;2023-08-08T02:53:20;15.82;;;3.63;;
49828;SDS011;35723;51.194;5.112;2023-08-08T02:55:46;14.68;;;3.35;;
49828;SDS011;35723;51.194;5.112;2023-08-08T02:58:12;16.35;;;4.05;;
49828;SDS011;35723;51.194;5.112;2023-08-08T03:00:38;14.73;;;3.70;;
49828;SDS011;35723;51.194;5.112;2023-08-08T03:03:04;14.32;;;3.58;;
49828;SDS011;35723;51.194;5.112;2023-08-08T03:05:29;21.83;;;4.07;;
49828;SDS011;35723;51.194;5.112;2023-08-08T03:07:55;20.20;;;4.20;;
49828;SDS011;35723;51.194;5.112;2023-08-08T03:10:21;18.88;;;3.95;;
49828;SDS011;35723;51.194;5.112;2023-08-08T03:12:46;16.73;;;3.95;;
49828;SDS011;35723;51.194;5.112;2023-08-08T03:15:13;15.10;;;3.63;;
49828;SDS011;35723;51.194;5.112;2023-08-08T03:17:39;14.95;;;3.50;;
49828;SDS011;35723;51.194;5.112;2023-08-08T03:20:05;16.67;;;3.70;;
49828;SDS011;35723;51.194;5.112;2023-08-08T03:22:31;15.90;;;3.63;;
49828;SDS011;35723;51.194;5.112;2023-08-08T03:24:57;15.73;;;3.63;;
49828;SDS011;35723;51.194;5.112;2023-08-08T03:27:23;19.75;;;4.00;;
49828;SDS011;35723;51.194;5.112;2023-08-08T03:29:50;16.65;;;3.60;;
49828;SDS011;35723;51.194;5.112;2023-08-08T03:32:16;19.92;;;4.10;;
49828;SDS011;35723;51.194;5.112;2023-08-08T03:34:41;20.15;;;4.10;;
49828;SDS011;35723;51.194;5.112;2023-08-08T03:37:07;19.38;;;4.20;;
49828;SDS011;35723;51.194;5.112;2023-08-08T03:39:33;16.20;;;4.40;;
49828;SDS011;35723;51.194;5.112;2023-08-08T03:41:58;20.30;;;4.25;;
49828;SDS011;35723;51.194;5.112;2023-08-08T03:44:24;18.38;;;3.90;;
49828;SDS011;35723;51.194;5.112;2023-08-08T03:46:49;17.95;;;3.97;;
49828;SDS011;35723;51.194;5.112;2023-08-08T03:49:16;19.52;;;4.18;;
49828;SDS011;35723;51.194;5.112;2023-08-08T03:51:41;18.80;;;4.05;;
49828;SDS011;35723;51.194;5.112;2023-08-08T03:54:07;21.00;;;4.78;;
49828;SDS011;35723;51.194;5.112;2023-08-08T03:56:33;13.80;;;4.00;;
49828;SDS011;35723;51.194;5.112;2023-08-08T03:58:59;16.90;;;4.13;;
49828;SDS011;35723;51.194;5.112;2023-08-08T04:01:24;17.08;;;3.90;;
49828;SDS011;35723;51.194;5.112;2023-08-08T04:03:50;16.38;;;4.30;;
49828;SDS011;35723;51.194;5.112;2023-08-08T04:06:16;21.52;;;4.57;;
49828;SDS011;35723;51.194;5.112;2023-08-08T04:08:41;17.73;;;4.10;;
49828;SDS011;35723;51.194;5.112;2023-08-08T04:11:07;17.80;;;4.40;;
49828;SDS011;35723;51.194;5.112;2023-08-08T04:13:32;19.15;;;4.80;;
49828;SDS011;35723;51.194;5.112;2023-08-08T04:16:00;23.70;;;4.40;;
49828;SDS011;35723;51.194;5.112;2023-08-08T04:18:26;18.65;;;4.55;;
49828;SDS011;35723;51.194;5.112;2023-08-08T04:20:51;18.10;;;4.25;;
49828;SDS011;35723;51.194;5.112;2023-08-08T04:23:17;17.92;;;4.25;;
49828;SDS011;35723;51.194;5.112;2023-08-08T04:25:43;17.42;;;4.28;;
49828;SDS011;35723;51.194;5.112;2023-08-08T04:28:09;17.33;;;3.78;;
49828;SDS011;35723;51.194;5.112;2023-08-08T04:30:34;21.88;;;4.75;;
49828;SDS011;35723;51.194;5.112;2023-08-08T04:33:00;17.90;;;4.13;;
49828;SDS011;35723;51.194;5.112;2023-08-08T04:35:26;17.85;;;4.30;;
49828;SDS011;35723;51.194;5.112;2023-08-08T04:37:51;17.40;;;4.15;;
49828;SDS011;35723;51.194;5.112;2023-08-08T04:40:17;16.63;;;3.92;;
49828;SDS011;35723;51.194;5.112;2023-08-08T04:42:42;17.30;;;3.90;;
49828;SDS011;35723;51.194;5.112;2023-08-08T04:45:08;21.38;;;5.05;;
49828;SDS011;35723;51.194;5.112;2023-08-08T04:47:34;17.65;;;4.20;;
49828;SDS011;35723;51.194;5.112;2023-08-08T04:50:00;19.58;;;4.30;;
49828;SDS011;35723;51.194;5.112;2023-08-08T04:52:25;20.35;;;4.15;;
49828;SDS011;35723;51.194;5.112;2023-08-08T04:54:51;22.88;;;4.45;;
49828;SDS011;35723;51.194;5.112;2023-08-08T04:57:17;23.38;;;4.47;;
49828;SDS011;35723;51.194;5.112;2023-08-08T04:59:42;19.80;;;4.90;;
49828;SDS011;35723;51.194;5.112;2023-08-08T05:02:08;18.45;;;4.50;;
49828;SDS011;35723;51.194;5.112;2023-08-08T05:04:34;20.48;;;4.47;;
49828;SDS011;35723;51.194;5.112;2023-08-08T05:06:59;20.90;;;3.92;;
49828;SDS011;35723;51.194;5.112;2023-08-08T05:09:25;18.23;;;4.03;;
49828;SDS011;35723;51.194;5.112;2023-08-08T05:11:53;21.10;;;4.47;;
49828;SDS011;35723;51.194;5.112;2023-08-08T05:14:19;21.85;;;4.55;;
49828;SDS011;35723;51.194;5.112;2023-08-08T05:16:44;18.95;;;4.20;;
49828;SDS011;35723;51.194;5.112;2023-08-08T05:19:11;20.02;;;4.70;;
49828;SDS011;35723;51.194;5.112;2023-08-08T05:21:37;19.23;;;4.57;;
49828;SDS011;35723;51.194;5.112;2023-08-08T05:24:02;22.52;;;4.43;;
49828;SDS011;35723;51.194;5.112;2023-08-08T05:26:28;19.23;;;4.78;;
49828;SDS011;35723;51.194;5.112;2023-08-08T05:28:54;20.90;;;4.78;;
49828;SDS011;35723;51.194;5.112;2023-08-08T05:31:19;19.70;;;4.55;;
49828;SDS011;35723;51.194;5.112;2023-08-08T05:33:45;18.58;;;4.15;;
49828;SDS011;35723;51.194;5.112;2023-08-08T05:36:10;15.93;;;4.50;;
49828;SDS011;35723;51.194;5.112;2023-08-08T05:38:36;21.52;;;4.70;;
49828;SDS011;35723;51.194;5.112;2023-08-08T05:41:02;24.15;;;4.72;;
49828;SDS011;35723;51.194;5.112;2023-08-08T05:43:27;17.13;;;4.47;;
49828;SDS011;35723;51.194;5.112;2023-08-08T05:45:53;20.85;;;4.80;;
49828;SDS011;35723;51.194;5.112;2023-08-08T05:48:19;24.02;;;4.72;;
49828;SDS011;35723;51.194;5.112;2023-08-08T05:50:44;21.75;;;4.65;;
49828;SDS011;35723;51.194;5.112;2023-08-08T05:53:10;20.05;;;4.40;;
49828;SDS011;35723;51.194;5.112;2023-08-08T05:55:36;22.70;;;4.53;;
49828;SDS011;35723;51.194;5.112;2023-08-08T05:58:02;19.90;;;4.05;;
49828;SDS011;35723;51.194;5.112;2023-08-08T06:00:27;15.90;;;4.15;;
49828;SDS011;35723;51.194;5.112;2023-08-08T06:02:55;18.90;;;4.43;;
49828;SDS011;35723;51.194;5.112;2023-08-08T06:05:24;23.15;;;4.82;;
49828;SDS011;35723;51.194;5.112;2023-08-08T06:07:49;21.42;;;4.00;;
49828;SDS011;35723;51.194;5.112;2023-08-08T06:10:15;20.95;;;4.30;;
49828;SDS011;35723;51.194;5.112;2023-08-08T06:12:41;18.95;;;4.28;;
49828;SDS011;35723;51.194;5.112;2023-08-08T06:15:06;18.75;;;4.05;;
49828;SDS011;35723;51.194;5.112;2023-08-08T06:17:33;17.40;;;4.13;;
49828;SDS011;35723;51.194;5.112;2023-08-08T06:19:59;19.92;;;4.50;;
49828;SDS011;35723;51.194;5.112;2023-08-08T06:22:25;19.33;;;4.50;;
49828;SDS011;35723;51.194;5.112;2023-08-08T06:24:50;21.58;;;4.40;;
49828;SDS011;35723;51.194;5.112;2023-08-08T06:27:16;19.38;;;4.10;;
49828;SDS011;35723;51.194;5.112;2023-08-08T06:29:42;19.80;;;4.28;;
49828;SDS011;35723;51.194;5.112;2023-08-08T06:32:08;18.30;;;4.30;;
49828;SDS011;35723;51.194;5.112;2023-08-08T06:34:34;16.67;;;4.50;;
49828;SDS011;35723;51.194;5.112;2023-08-08T06:36:59;18.10;;;4.20;;
49828;SDS011;35723;51.194;5.112;2023-08-08T06:39:25;20.23;;;4.57;;
49828;SDS011;35723;51.194;5.112;2023-08-08T06:41:51;16.10;;;4.47;;
49828;SDS011;35723;51.194;5.112;2023-08-08T06:44:16;19.63;;;4.40;;
49828;SDS011;35723;51.194;5.112;2023-08-08T06:46:42;23.05;;;4.40;;
49828;SDS011;35723;51.194;5.112;2023-08-08T06:49:08;19.02;;;4.60;;
49828;SDS011;35723;51.194;5.112;2023-08-08T06:51:34;22.40;;;4.97;;
49828;SDS011;35723;51.194;5.112;2023-08-08T06:54:00;18.63;;;4.13;;
49828;SDS011;35723;51.194;5.112;2023-08-08T06:56:26;19.15;;;4.47;;
49828;SDS011;35723;51.194;5.112;2023-08-08T06:58:52;18.00;;;4.25;;
49828;SDS011;35723;51.194;5.112;2023-08-08T07:01:18;24.10;;;5.13;;
49828;SDS011;35723;51.194;5.112;2023-08-08T07:03:44;23.90;;;4.93;;
49828;SDS011;35723;51.194;5.112;2023-08-08T07:06:11;20.85;;;4.80;;
49828;SDS011;35723;51.194;5.112;2023-08-08T07:08:37;22.20;;;5.18;;
49828;SDS011;35723;51.194;5.112;2023-08-08T07:11:04;17.05;;;4.57;;
49828;SDS011;35723;51.194;5.112;2023-08-08T07:13:31;17.15;;;4.35;;
49828;SDS011;35723;51.194;5.112;2023-08-08T07:15:57;19.85;;;4.70;;
49828;SDS011;35723;51.194;5.112;2023-08-08T07:18:22;20.98;;;4.63;;
49828;SDS011;35723;51.194;5.112;2023-08-08T07:20:48;16.75;;;4.60;;
49828;SDS011;35723;51.194;5.112;2023-08-08T07:23:14;23.02;;;5.15;;
49828;SDS011;35723;51.194;5.112;2023-08-08T07:25:41;18.38;;;4.55;;
49828;SDS011;35723;51.194;5.112;2023-08-08T07:28:07;22.58;;;4.47;;
49828;SDS011;35723;51.194;5.112;2023-08-08T07:30:33;20.45;;;4.85;;
49828;SDS011;35723;51.194;5.112;2023-08-08T07:32:59;22.00;;;4.80;;
49828;SDS011;35723;51.194;5.112;2023-08-08T07:35:25;22.50;;;4.32;;
49828;SDS011;35723;51.194;5.112;2023-08-08T07:37:51;22.00;;;4.65;;
49828;SDS011;35723;51.194;5.112;2023-08-08T07:40:17;16.23;;;4.22;;
49828;SDS011;35723;51.194;5.112;2023-08-08T07:42:47;17.40;;;4.07;;
49828;SDS011;35723;51.194;5.112;2023-08-08T07:45:14;20.02;;;4.38;;
49828;SDS011;35723;51.194;5.112;2023-08-08T07:47:40;19.85;;;4.30;;
49828;SDS011;35723;51.194;5.112;2023-08-08T07:50:07;14.93;;;3.88;;
49828;SDS011;35723;51.194;5.112;2023-08-08T07:52:34;16.58;;;4.18;;
49828;SDS011;35723;51.194;5.112;2023-08-08T07:55:00;17.60;;;4.43;;
49828;SDS011;35723;51.194;5.112;2023-08-08T07:57:26;20.33;;;4.35;;
49828;SDS011;35723;51.194;5.112;2023-08-08T07:59:52;17.48;;;3.97;;
49828;SDS011;35723;51.194;5.112;2023-08-08T08:02:18;19.35;;;4.10;;
49828;SDS011;35723;51.194;5.112;2023-08-08T08:04:43;19.90;;;4.25;;
49828;SDS011;35723;51.194;5.112;2023-08-08T08:07:09;14.57;;;3.92;;
49828;SDS011;35723;51.194;5.112;2023-08-08T08:09:34;17.40;;;4.38;;
49828;SDS011;35723;51.194;5.112;2023-08-08T08:12:00;15.35;;;3.40;;
49828;SDS011;35723;51.194;5.112;2023-08-08T08:14:26;17.08;;;4.00;;
49828;SDS011;35723;51.194;5.112;2023-08-08T08:16:52;16.80;;;3.90;;
49828;SDS011;35723;51.194;5.112;2023-08-08T08:19:19;15.93;;;3.47;;
49828;SDS011;35723;51.194;5.112;2023-08-08T08:21:45;14.88;;;3.75;;
49828;SDS011;35723;51.194;5.112;2023-08-08T08:24:11;13.73;;;3.63;;
49828;SDS011;35723;51.194;5.112;2023-08-08T08:26:36;17.38;;;3.80;;
49828;SDS011;35723;51.194;5.112;2023-08-08T08:29:02;19.50;;;4.18;;
49828;SDS011;35723;51.194;5.112;2023-08-08T08:31:27;14.80;;;3.75;;
49828;SDS011;35723;51.194;5.112;2023-08-08T08:33:54;15.27;;;3.88;;
49828;SDS011;35723;51.194;5.112;2023-08-08T08:36:20;19.02;;;4.15;;
49828;SDS011;35723;51.194;5.112;2023-08-08T08:38:46;15.35;;;4.03;;
49828;SDS011;35723;51.194;5.112;2023-08-08T08:41:14;20.75;;;4.57;;
49828;SDS011;35723;51.194;5.112;2023-08-08T08:43:42;23.08;;;4.72;;
49828;SDS011;35723;51.194;5.112;2023-08-08T08:46:08;23.00;;;4.35;;
49828;SDS011;35723;51.194;5.112;2023-08-08T08:48:36;15.85;;;3.90;;
49828;SDS011;35723;51.194;5.112;2023-08-08T08:51:02;18.65;;;4.20;;
49828;SDS011;35723;51.194;5.112;2023-08-08T08:53:28;18.73;;;4.15;;
49828;SDS011;35723;51.194;5.112;2023-08-08T08:55:56;15.65;;;3.95;;
49828;SDS011;35723;51.194;5.112;2023-08-08T08:58:25;18.05;;;3.83;;
49828;SDS011;35723;51.194;5.112;2023-08-08T09:00:53;16.90;;;4.20;;
49828;SDS011;35723;51.194;5.112;2023-08-08T09:03:19;14.65;;;3.63;;
49828;SDS011;35723;51.194;5.112;2023-08-08T09:05:45;15.95;;;3.92;;
49828;SDS011;35723;51.194;5.112;2023-08-08T09:08:11;16.60;;;3.50;;
49828;SDS011;35723;51.194;5.112;2023-08-08T09:10:40;17.73;;;4.10;;
49828;SDS011;35723;51.194;5.112;2023-08-08T09:13:06;13.18;;;3.72;;
49828;SDS011;35723;51.194;5.112;2023-08-08T09:15:32;14.73;;;3.90;;
49828;SDS011;35723;51.194;5.112;2023-08-08T09:17:58;13.60;;;3.45;;
49828;SDS011;35723;51.194;5.112;2023-08-08T09:20:25;12.38;;;3.40;;
49828;SDS011;35723;51.194;5.112;2023-08-08T09:22:53;15.73;;;3.40;;
49828;SDS011;35723;51.194;5.112;2023-08-08T09:25:19;15.93;;;3.72;;
49828;SDS011;35723;51.194;5.112;2023-08-08T09:27:45;14.75;;;3.58;;
49828;SDS011;35723;51.194;5.112;2023-08-08T09:30:11;14.05;;;3.22;;
49828;SDS011;35723;51.194;5.112;2023-08-08T09:32:37;13.85;;;3.40;;
49828;SDS011;35723;51.194;5.112;2023-08-08T09:35:03;16.48;;;3.60;;
49828;SDS011;35723;51.194;5.112;2023-08-08T09:37:34;13.10;;;3.28;;
49828;SDS011;35723;51.194;5.112;2023-08-08T09:40:00;14.23;;;3.10;;
49828;SDS011;35723;51.194;5.112;2023-08-08T09:42:29;16.73;;;3.30;;
49828;SDS011;35723;51.194;5.112;2023-08-08T09:44:58;13.68;;;3.38;;
49828;SDS011;35723;51.194;5.112;2023-08-08T09:47:24;19.35;;;3.53;;
49828;SDS011;35723;51.194;5.112;2023-08-08T09:49:56;11.75;;;3.30;;
49828;SDS011;35723;51.194;5.112;2023-08-08T09:52:29;13.52;;;3.53;;
49828;SDS011;35723;51.194;5.112;2023-08-08T09:54:55;13.98;;;3.60;;
49828;SDS011;35723;51.194;5.112;2023-08-08T09:57:24;14.32;;;3.75;;
49828;SDS011;35723;51.194;5.112;2023-08-08T09:59:51;17.45;;;3.80;;
49828;SDS011;35723;51.194;5.112;2023-08-08T10:02:17;14.32;;;4.10;;
49828;SDS011;35723;51.194;5.112;2023-08-08T10:04:46;18.30;;;4.38;;
49828;SDS011;35723;51.194;5.112;2023-08-08T10:07:12;15.90;;;4.00;;
49828;SDS011;35723;51.194;5.112;2023-08-08T10:09:39;19.48;;;4.55;;
49828;SDS011;35723;51.194;5.112;2023-08-08T10:12:05;16.02;;;4.18;;
49828;SDS011;35723;51.194;5.112;2023-08-08T10:14:32;15.77;;;4.03;;
49828;SDS011;35723;51.194;5.112;2023-08-08T10:17:04;15.63;;;4.53;;
49828;SDS011;35723;51.194;5.112;2023-08-08T10:19:31;12.23;;;4.10;;
49828;SDS011;35723;51.194;5.112;2023-08-08T10:21:57;13.68;;;4.00;;
49828;SDS011;35723;51.194;5.112;2023-08-08T10:24:32;13.63;;;3.92;;
49828;SDS011;35723;51.194;5.112;2023-08-08T10:27:01;12.85;;;3.63;;
49828;SDS011;35723;51.194;5.112;2023-08-08T10:29:29;16.25;;;4.07;;
49828;SDS011;35723;51.194;5.112;2023-08-08T10:31:58;16.17;;;3.95;;
49828;SDS011;35723;51.194;5.112;2023-08-08T10:34:42;14.60;;;4.15;;
49828;SDS011;35723;51.194;5.112;2023-08-08T10:37:11;15.50;;;3.97;;
49828;SDS011;35723;51.194;5.112;2023-08-08T10:39:51;12.00;;;3.47;;
49828;SDS011;35723;51.194;5.112;2023-08-08T10:42:23;14.45;;;3.53;;
49828;SDS011;35723;51.194;5.112;2023-08-08T10:44:51;14.23;;;3.60;;
49828;SDS011;35723;51.194;5.112;2023-08-08T10:47:24;12.63;;;3.40;;
49828;SDS011;35723;51.194;5.112;2023-08-08T10:57:56;8.23;;;3.20;;
49828;SDS011;35723;51.194;5.112;2023-08-08T11:00:38;11.23;;;2.80;;
49828;SDS011;35723;51.194;5.112;2023-08-08T11:03:05;9.82;;;2.70;;
49828;SDS011;35723;51.194;5.112;2023-08-08T11:05:32;6.65;;;2.70;;
49828;SDS011;35723;51.194;5.112;2023-08-08T11:07:59;10.77;;;2.60;;
49828;SDS011;35723;51.194;5.112;2023-08-08T11:10:25;7.13;;;2.65;;
49828;SDS011;35723;51.194;5.112;2023-08-08T11:13:02;9.93;;;2.55;;
49828;SDS011;35723;51.194;5.112;2023-08-08T11:15:31;4.53;;;2.28;;
49828;SDS011;35723;51.194;5.112;2023-08-08T11:17:58;6.10;;;2.38;;
49828;SDS011;35723;51.194;5.112;2023-08-08T11:20:25;11.20;;;2.65;;
49828;SDS011;35723;51.194;5.112;2023-08-08T11:22:56;5.85;;;2.20;;
49828;SDS011;35723;51.194;5.112;2023-08-08T11:25:25;8.65;;;2.33;;
49828;SDS011;35723;51.194;5.112;2023-08-08T11:27:51;8.13;;;2.30;;
49828;SDS011;35723;51.194;5.112;2023-08-08T11:30:18;6.32;;;2.10;;
49828;SDS011;35723;51.194;5.112;2023-08-08T11:32:48;8.88;;;2.63;;
49828;SDS011;35723;51.194;5.112;2023-08-08T11:35:20;6.18;;;2.30;;
49828;SDS011;35723;51.194;5.112;2023-08-08T11:37:47;4.32;;;2.00;;
49828;SDS011;35723;51.194;5.112;2023-08-08T11:40:14;7.22;;;1.90;;
49828;SDS011;35723;51.194;5.112;2023-08-08T11:42:41;4.00;;;1.85;;
49828;SDS011;35723;51.194;5.112;2023-08-08T11:45:10;6.15;;;2.00;;
49828;SDS011;35723;51.194;5.112;2023-08-08T11:47:37;5.25;;;1.90;;
49828;SDS011;35723;51.194;5.112;2023-08-08T11:50:05;4.93;;;1.92;;
49828;SDS011;35723;51.194;5.112;2023-08-08T11:52:32;7.85;;;1.98;;
49828;SDS011;35723;51.194;5.112;2023-08-08T11:54:58;6.78;;;1.80;;
49828;SDS011;35723;51.194;5.112;2023-08-08T11:57:27;8.40;;;2.05;;
49828;SDS011;35723;51.194;5.112;2023-08-08T11:59:53;4.80;;;1.90;;
49828;SDS011;35723;51.194;5.112;2023-08-08T12:02:19;7.32;;;1.90;;
49828;SDS011;35723;51.194;5.112;2023-08-08T12:04:45;5.32;;;1.80;;
49828;SDS011;35723;51.194;5.112;2023-08-08T12:07:11;5.22;;;2.00;;
49828;SDS011;35723;51.194;5.112;2023-08-08T12:09:37;6.25;;;2.00;;
49828;SDS011;35723;51.194;5.112;2023-08-08T12:12:03;7.43;;;1.80;;
49828;SDS011;35723;51.194;5.112;2023-08-08T12:14:30;4.63;;;1.73;;
49828;SDS011;35723;51.194;5.112;2023-08-08T12:17:02;7.70;;;2.08;;
49828;SDS011;35723;51.194;5.112;2023-08-08T12:19:28;6.07;;;2.08;;
49828;SDS011;35723;51.194;5.112;2023-08-08T12:21:53;9.45;;;2.50;;
49828;SDS011;35723;51.194;5.112;2023-08-08T12:24:19;7.68;;;2.40;;
49828;SDS011;35723;51.194;5.112;2023-08-08T12:26:45;5.18;;;2.10;;
49828;SDS011;35723;51.194;5.112;2023-08-08T12:29:11;5.35;;;2.20;;
49828;SDS011;35723;51.194;5.112;2023-08-08T12:31:38;7.35;;;2.22;;
49828;SDS011;35723;51.194;5.112;2023-08-08T12:34:04;10.57;;;2.30;;
49828;SDS011;35723;51.194;5.112;2023-08-08T12:36:30;4.68;;;2.22;;
49828;SDS011;35723;51.194;5.112;2023-08-08T12:38:56;6.93;;;2.22;;
49828;SDS011;35723;51.194;5.112;2023-08-08T12:41:22;9.40;;;2.13;;
49828;SDS011;35723;51.194;5.112;2023-08-08T12:43:49;7.25;;;2.28;;
49828;SDS011;35723;51.194;5.112;2023-08-08T12:46:16;5.80;;;2.20;;
49828;SDS011;35723;51.194;5.112;2023-08-08T12:48:42;6.20;;;2.28;;
49828;SDS011;35723;51.194;5.112;2023-08-08T12:51:10;5.55;;;1.98;;
49828;SDS011;35723;51.194;5.112;2023-08-08T12:53:36;7.05;;;2.00;;
49828;SDS011;35723;51.194;5.112;2023-08-08T12:56:02;7.47;;;2.17;;
49828;SDS011;35723;51.194;5.112;2023-08-08T12:58:28;5.63;;;2.17;;
49828;SDS011;35723;51.194;5.112;2023-08-08T13:00:53;6.63;;;2.40;;
49828;SDS011;35723;51.194;5.112;2023-08-08T13:03:19;6.50;;;2.65;;
49828;SDS011;35723;51.194;5.112;2023-08-08T13:05:45;4.72;;;2.30;;
49828;SDS011;35723;51.194;5.112;2023-08-08T13:08:11;5.70;;;2.25;;
49828;SDS011;35723;51.194;5.112;2023-08-08T13:10:38;5.22;;;1.88;;
49828;SDS011;35723;51.194;5.112;2023-08-08T13:13:04;5.00;;;1.90;;
49828;SDS011;35723;51.194;5.112;2023-08-08T13:15:30;5.22;;;2.00;;
49828;SDS011;35723;51.194;5.112;2023-08-08T13:17:56;4.60;;;2.00;;
49828;SDS011;35723;51.194;5.112;2023-08-08T13:20:25;7.32;;;2.30;;
49828;SDS011;35723;51.194;5.112;2023-08-08T13:22:51;7.53;;;2.60;;
49828;SDS011;35723;51.194;5.112;2023-08-08T13:25:16;9.25;;;2.78;;
49828;SDS011;35723;51.194;5.112;2023-08-08T13:27:43;5.22;;;2.70;;
49828;SDS011;35723;51.194;5.112;2023-08-08T13:30:10;8.10;;;2.50;;
49828;SDS011;35723;51.194;5.112;2023-08-08T13:32:36;4.95;;;2.30;;
49828;SDS011;35723;51.194;5.112;2023-08-08T13:35:01;9.43;;;2.85;;
49828;SDS011;35723;51.194;5.112;2023-08-08T13:37:27;6.38;;;2.40;;
49828;SDS011;35723;51.194;5.112;2023-08-08T13:39:53;9.43;;;2.72;;
49828;SDS011;35723;51.194;5.112;2023-08-08T13:42:19;8.40;;;2.58;;
49828;SDS011;35723;51.194;5.112;2023-08-08T13:44:44;6.45;;;2.40;;
49828;SDS011;35723;51.194;5.112;2023-08-08T13:47:10;8.30;;;2.40;;
49828;SDS011;35723;51.194;5.112;2023-08-08T13:49:35;8.00;;;2.40;;
49828;SDS011;35723;51.194;5.112;2023-08-08T13:52:01;6.25;;;2.60;;
49828;SDS011;35723;51.194;5.112;2023-08-08T13:54:27;6.97;;;2.58;;
49828;SDS011;35723;51.194;5.112;2023-08-08T13:56:53;5.15;;;2.22;;
49828;SDS011;35723;51.194;5.112;2023-08-08T13:59:18;6.80;;;2.20;;
49828;SDS011;35723;51.194;5.112;2023-08-08T14:01:44;4.40;;;2.10;;
49828;SDS011;35723;51.194;5.112;2023-08-08T14:04:10;4.63;;;2.20;;
49828;SDS011;35723;51.194;5.112;2023-08-08T14:06:35;5.03;;;1.92;;
49828;SDS011;35723;51.194;5.112;2023-08-08T14:09:01;4.00;;;1.80;;
49828;SDS011;35723;51.194;5.112;2023-08-08T14:11:28;4.53;;;2.20;;
49828;SDS011;35723;51.194;5.112;2023-08-08T14:13:54;6.55;;;2.25;;
49828;SDS011;35723;51.194;5.112;2023-08-08T14:16:20;5.85;;;1.98;;
49828;SDS011;35723;51.194;5.112;2023-08-08T14:18:46;6.57;;;2.28;;
49828;SDS011;35723;51.194;5.112;2023-08-08T14:21:11;6.55;;;2.25;;
49828;SDS011;35723;51.194;5.112;2023-08-08T14:23:37;4.03;;;2.20;;
49828;SDS011;35723;51.194;5.112;2023-08-08T14:26:03;4.95;;;2.20;;
49828;SDS011;35723;51.194;5.112;2023-08-08T14:28:28;6.18;;;2.30;;
49828;SDS011;35723;51.194;5.112;2023-08-08T14:30:54;5.80;;;2.30;;
49828;SDS011;35723;51.194;5.112;2023-08-08T14:33:20;5.88;;;2.20;;
49828;SDS011;35723;51.194;5.112;2023-08-08T14:35:45;5.63;;;2.00;;
49828;SDS011;35723;51.194;5.112;2023-08-08T14:38:11;3.25;;;1.90;;
49828;SDS011;35723;51.194;5.112;2023-08-08T14:40:37;3.97;;;1.80;;
49828;SDS011;35723;51.194;5.112;2023-08-08T14:43:02;5.00;;;2.00;;
49828;SDS011;35723;51.194;5.112;2023-08-08T14:45:28;7.60;;;2.17;;